sensor_id;sensor_type;location;lat;lon;timestamp;P1;durP1;ratioP1;P2;durP2;ratioP2
83054;SDS011;72877;52.130;5.582;2023-11-18T00:02:15;47.70;;;26.27;;
83054;SDS011;72877;52.130;5.582;2023-11-18T00:04:40;46.40;;;25.92;;
83054;SDS011;72877;52.130;5.582;2023-11-18T00:07:05;47.03;;;26.67;;
83054;SDS011;72877;52.130;5.582;2023-11-18T00:09:30;44.20;;;23.40;;
83054;SDS011;72877;52.130;5.582;2023-11-18T00:11:56;47.67;;;25.80;;
83054;SDS011;72877;52.130;5.582;2023-11-18T00:14:21;45.30;;;26.35;;
83054;SDS011;72877;52.130;5.582;2023-11-18T00:16:46;48.22;;;26.25;;
83054;SDS011;72877;52.130;5.582;2023-11-18T00:19:12;44.53;;;24.83;;
83054;SDS011;72877;52.130;5.582;2023-11-18T00:21:37;50.45;;;25.58;;
83054;SDS011;72877;52.130;5.582;2023-11-18T00:24:02;43.88;;;24.88;;
83054;SDS011;72877;52.130;5.582;2023-11-18T00:26:27;49.58;;;26.10;;
83054;SDS011;72877;52.130;5.582;2023-11-18T00:28:54;45.60;;;24.98;;
83054;SDS011;72877;52.130;5.582;2023-11-18T00:31:19;44.08;;;23.65;;
83054;SDS011;72877;52.130;5.582;2023-11-18T00:33:44;43.78;;;24.58;;
83054;SDS011;72877;52.130;5.582;2023-11-18T00:36:10;48.70;;;26.05;;
83054;SDS011;72877;52.130;5.582;2023-11-18T00:38:35;42.70;;;25.03;;
83054;SDS011;72877;52.130;5.582;2023-11-18T00:41:00;42.67;;;24.35;;
83054;SDS011;72877;52.130;5.582;2023-11-18T00:43:26;42.60;;;25.10;;
83054;SDS011;72877;52.130;5.582;2023-11-18T00:45:51;47.90;;;26.15;;
83054;SDS011;72877;52.130;5.582;2023-11-18T00:48:16;46.33;;;24.80;;
83054;SDS011;72877;52.130;5.582;2023-11-18T00:50:42;45.75;;;26.27;;
83054;SDS011;72877;52.130;5.582;2023-11-18T00:53:07;41.03;;;24.30;;
83054;SDS011;72877;52.130;5.582;2023-11-18T00:55:32;42.10;;;25.20;;
83054;SDS011;72877;52.130;5.582;2023-11-18T00:57:57;46.00;;;25.25;;
83054;SDS011;72877;52.130;5.582;2023-11-18T01:00:23;45.00;;;25.80;;
83054;SDS011;72877;52.130;5.582;2023-11-18T01:02:51;45.03;;;24.40;;
83054;SDS011;72877;52.130;5.582;2023-11-18T01:05:16;49.42;;;25.30;;
83054;SDS011;72877;52.130;5.582;2023-11-18T01:07:41;44.92;;;25.10;;
83054;SDS011;72877;52.130;5.582;2023-11-18T01:10:08;42.63;;;23.50;;
83054;SDS011;72877;52.130;5.582;2023-11-18T01:12:34;46.03;;;24.60;;
83054;SDS011;72877;52.130;5.582;2023-11-18T01:15:00;40.28;;;24.85;;
83054;SDS011;72877;52.130;5.582;2023-11-18T01:17:25;44.30;;;24.52;;
83054;SDS011;72877;52.130;5.582;2023-11-18T01:19:50;43.90;;;24.58;;
83054;SDS011;72877;52.130;5.582;2023-11-18T01:22:16;43.40;;;23.65;;
83054;SDS011;72877;52.130;5.582;2023-11-18T01:24:43;48.17;;;25.73;;
83054;SDS011;72877;52.130;5.582;2023-11-18T01:27:08;44.08;;;25.33;;
83054;SDS011;72877;52.130;5.582;2023-11-18T01:29:34;49.72;;;25.35;;
83054;SDS011;72877;52.130;5.582;2023-11-18T01:32:00;43.30;;;23.55;;
83054;SDS011;72877;52.130;5.582;2023-11-18T01:34:25;46.17;;;25.95;;
83054;SDS011;72877;52.130;5.582;2023-11-18T01:36:50;46.65;;;24.38;;
83054;SDS011;72877;52.130;5.582;2023-11-18T01:39:16;46.95;;;25.42;;
83054;SDS011;72877;52.130;5.582;2023-11-18T01:41:43;44.05;;;25.50;;
83054;SDS011;72877;52.130;5.582;2023-11-18T01:44:08;43.78;;;24.77;;
83054;SDS011;72877;52.130;5.582;2023-11-18T01:46:33;44.67;;;25.63;;
83054;SDS011;72877;52.130;5.582;2023-11-18T01:49:00;44.83;;;26.42;;
83054;SDS011;72877;52.130;5.582;2023-11-18T01:51:28;47.47;;;27.17;;
83054;SDS011;72877;52.130;5.582;2023-11-18T01:53:53;43.72;;;25.63;;
83054;SDS011;72877;52.130;5.582;2023-11-18T01:56:19;55.30;;;26.20;;
83054;SDS011;72877;52.130;5.582;2023-11-18T01:58:46;41.55;;;25.23;;
83054;SDS011;72877;52.130;5.582;2023-11-18T02:01:11;44.53;;;25.48;;
83054;SDS011;72877;52.130;5.582;2023-11-18T02:03:36;43.97;;;24.10;;
83054;SDS011;72877;52.130;5.582;2023-11-18T02:06:03;48.30;;;26.50;;
83054;SDS011;72877;52.130;5.582;2023-11-18T02:08:33;44.40;;;25.80;;
83054;SDS011;72877;52.130;5.582;2023-11-18T02:11:01;44.95;;;25.13;;
83054;SDS011;72877;52.130;5.582;2023-11-18T02:13:36;45.60;;;24.85;;
83054;SDS011;72877;52.130;5.582;2023-11-18T02:16:03;50.97;;;25.15;;
83054;SDS011;72877;52.130;5.582;2023-11-18T02:18:29;42.33;;;24.35;;
83054;SDS011;72877;52.130;5.582;2023-11-18T02:20:55;49.00;;;26.30;;
83054;SDS011;72877;52.130;5.582;2023-11-18T02:23:22;48.53;;;26.27;;
83054;SDS011;72877;52.130;5.582;2023-11-18T02:25:48;44.92;;;26.83;;
83054;SDS011;72877;52.130;5.582;2023-11-18T02:28:14;49.22;;;26.38;;
83054;SDS011;72877;52.130;5.582;2023-11-18T02:30:40;49.70;;;26.65;;
83054;SDS011;72877;52.130;5.582;2023-11-18T02:35:38;48.55;;;26.50;;
83054;SDS011;72877;52.130;5.582;2023-11-18T02:38:06;49.45;;;27.45;;
83054;SDS011;72877;52.130;5.582;2023-11-18T02:40:36;47.35;;;25.55;;
83054;SDS011;72877;52.130;5.582;2023-11-18T02:43:02;46.40;;;26.33;;
83054;SDS011;72877;52.130;5.582;2023-11-18T02:45:30;48.13;;;27.05;;
83054;SDS011;72877;52.130;5.582;2023-11-18T02:47:56;44.38;;;26.00;;
83054;SDS011;72877;52.130;5.582;2023-11-18T02:50:25;45.15;;;27.23;;
83054;SDS011;72877;52.130;5.582;2023-11-18T02:52:52;47.85;;;27.77;;
83054;SDS011;72877;52.130;5.582;2023-11-18T02:55:17;42.08;;;25.80;;
83054;SDS011;72877;52.130;5.582;2023-11-18T02:57:42;51.90;;;28.13;;
83054;SDS011;72877;52.130;5.582;2023-11-18T03:00:08;48.90;;;27.08;;
83054;SDS011;72877;52.130;5.582;2023-11-18T03:02:44;48.28;;;26.58;;
83054;SDS011;72877;52.130;5.582;2023-11-18T03:05:11;46.38;;;27.08;;
83054;SDS011;72877;52.130;5.582;2023-11-18T03:07:42;50.47;;;28.00;;
83054;SDS011;72877;52.130;5.582;2023-11-18T03:10:09;45.60;;;26.08;;
83054;SDS011;72877;52.130;5.582;2023-11-18T03:12:37;44.10;;;26.08;;
83054;SDS011;72877;52.130;5.582;2023-11-18T03:15:03;51.53;;;27.25;;
83054;SDS011;72877;52.130;5.582;2023-11-18T03:17:28;48.97;;;27.83;;
83054;SDS011;72877;52.130;5.582;2023-11-18T03:19:53;51.90;;;26.85;;
83054;SDS011;72877;52.130;5.582;2023-11-18T03:22:18;49.30;;;27.17;;
83054;SDS011;72877;52.130;5.582;2023-11-18T03:24:44;47.50;;;27.60;;
83054;SDS011;72877;52.130;5.582;2023-11-18T03:27:09;51.22;;;26.85;;
83054;SDS011;72877;52.130;5.582;2023-11-18T03:29:34;47.77;;;25.70;;
83054;SDS011;72877;52.130;5.582;2023-11-18T03:31:59;49.78;;;28.92;;
83054;SDS011;72877;52.130;5.582;2023-11-18T03:34:24;51.30;;;27.30;;
83054;SDS011;72877;52.130;5.582;2023-11-18T03:36:50;48.38;;;25.20;;
83054;SDS011;72877;52.130;5.582;2023-11-18T03:39:16;47.42;;;27.13;;
83054;SDS011;72877;52.130;5.582;2023-11-18T03:41:41;47.22;;;26.80;;
83054;SDS011;72877;52.130;5.582;2023-11-18T03:44:09;48.13;;;26.17;;
83054;SDS011;72877;52.130;5.582;2023-11-18T03:46:34;42.97;;;25.73;;
83054;SDS011;72877;52.130;5.582;2023-11-18T03:49:00;45.00;;;25.65;;
83054;SDS011;72877;52.130;5.582;2023-11-18T03:51:26;44.15;;;25.45;;
83054;SDS011;72877;52.130;5.582;2023-11-18T03:53:51;43.92;;;24.77;;
83054;SDS011;72877;52.130;5.582;2023-11-18T03:56:17;48.10;;;27.92;;
83054;SDS011;72877;52.130;5.582;2023-11-18T03:58:45;49.10;;;27.23;;
83054;SDS011;72877;52.130;5.582;2023-11-18T04:01:22;49.50;;;25.85;;
83054;SDS011;72877;52.130;5.582;2023-11-18T04:03:48;43.55;;;25.20;;
83054;SDS011;72877;52.130;5.582;2023-11-18T04:06:13;53.15;;;27.75;;
83054;SDS011;72877;52.130;5.582;2023-11-18T04:08:42;51.63;;;27.35;;
83054;SDS011;72877;52.130;5.582;2023-11-18T04:11:08;47.40;;;25.40;;
83054;SDS011;72877;52.130;5.582;2023-11-18T04:13:34;47.83;;;25.30;;
83054;SDS011;72877;52.130;5.582;2023-11-18T04:15:59;47.05;;;25.52;;
83054;SDS011;72877;52.130;5.582;2023-11-18T04:18:25;49.47;;;27.67;;
83054;SDS011;72877;52.130;5.582;2023-11-18T04:20:50;47.80;;;25.75;;
83054;SDS011;72877;52.130;5.582;2023-11-18T04:23:15;50.37;;;27.87;;
83054;SDS011;72877;52.130;5.582;2023-11-18T04:25:41;53.03;;;28.02;;
83054;SDS011;72877;52.130;5.582;2023-11-18T04:28:06;48.22;;;27.40;;
83054;SDS011;72877;52.130;5.582;2023-11-18T04:30:31;50.97;;;26.63;;
83054;SDS011;72877;52.130;5.582;2023-11-18T04:32:57;49.53;;;27.08;;
83054;SDS011;72877;52.130;5.582;2023-11-18T04:35:23;55.13;;;29.83;;
83054;SDS011;72877;52.130;5.582;2023-11-18T04:37:49;52.55;;;27.88;;
83054;SDS011;72877;52.130;5.582;2023-11-18T04:40:14;55.05;;;28.42;;
83054;SDS011;72877;52.130;5.582;2023-11-18T04:42:40;52.92;;;28.67;;
83054;SDS011;72877;52.130;5.582;2023-11-18T04:45:06;55.05;;;29.27;;
83054;SDS011;72877;52.130;5.582;2023-11-18T04:47:34;61.75;;;28.95;;
83054;SDS011;72877;52.130;5.582;2023-11-18T04:49:59;53.65;;;30.20;;
83054;SDS011;72877;52.130;5.582;2023-11-18T04:52:24;52.08;;;28.65;;
83054;SDS011;72877;52.130;5.582;2023-11-18T04:54:50;53.97;;;30.27;;
83054;SDS011;72877;52.130;5.582;2023-11-18T04:57:15;49.05;;;27.65;;
83054;SDS011;72877;52.130;5.582;2023-11-18T04:59:41;58.35;;;29.95;;
83054;SDS011;72877;52.130;5.582;2023-11-18T05:02:07;57.33;;;29.55;;
83054;SDS011;72877;52.130;5.582;2023-11-18T05:04:32;54.58;;;28.52;;
83054;SDS011;72877;52.130;5.582;2023-11-18T05:06:57;60.88;;;30.33;;
83054;SDS011;72877;52.130;5.582;2023-11-18T05:09:23;54.13;;;28.38;;
83054;SDS011;72877;52.130;5.582;2023-11-18T05:11:49;57.08;;;28.42;;
83054;SDS011;72877;52.130;5.582;2023-11-18T05:14:14;56.75;;;29.27;;
83054;SDS011;72877;52.130;5.582;2023-11-18T05:16:41;54.17;;;28.20;;
83054;SDS011;72877;52.130;5.582;2023-11-18T05:19:06;59.13;;;28.80;;
83054;SDS011;72877;52.130;5.582;2023-11-18T05:21:32;58.20;;;29.75;;
83054;SDS011;72877;52.130;5.582;2023-11-18T05:23:57;53.40;;;27.73;;
83054;SDS011;72877;52.130;5.582;2023-11-18T05:26:23;56.80;;;30.15;;
83054;SDS011;72877;52.130;5.582;2023-11-18T05:28:48;60.35;;;29.20;;
83054;SDS011;72877;52.130;5.582;2023-11-18T05:31:14;53.97;;;27.15;;
83054;SDS011;72877;52.130;5.582;2023-11-18T05:33:40;49.58;;;27.38;;
83054;SDS011;72877;52.130;5.582;2023-11-18T05:36:06;56.63;;;30.35;;
83054;SDS011;72877;52.130;5.582;2023-11-18T05:38:31;52.55;;;27.60;;
83054;SDS011;72877;52.130;5.582;2023-11-18T05:40:59;58.17;;;29.40;;
83054;SDS011;72877;52.130;5.582;2023-11-18T05:43:28;52.15;;;27.70;;
83054;SDS011;72877;52.130;5.582;2023-11-18T05:46:16;48.30;;;27.88;;
83054;SDS011;72877;52.130;5.582;2023-11-18T05:48:49;47.47;;;25.90;;
83054;SDS011;72877;52.130;5.582;2023-11-18T05:51:18;50.72;;;26.70;;
83054;SDS011;72877;52.130;5.582;2023-11-18T05:53:43;45.90;;;26.13;;
83054;SDS011;72877;52.130;5.582;2023-11-18T05:56:10;53.05;;;26.73;;
83054;SDS011;72877;52.130;5.582;2023-11-18T05:58:36;47.97;;;26.80;;
83054;SDS011;72877;52.130;5.582;2023-11-18T06:01:02;51.28;;;27.10;;
83054;SDS011;72877;52.130;5.582;2023-11-18T06:03:27;52.28;;;26.58;;
83054;SDS011;72877;52.130;5.582;2023-11-18T06:05:52;47.47;;;25.00;;
83054;SDS011;72877;52.130;5.582;2023-11-18T06:08:18;52.05;;;25.73;;
83054;SDS011;72877;52.130;5.582;2023-11-18T06:10:43;50.78;;;25.00;;
83054;SDS011;72877;52.130;5.582;2023-11-18T06:13:10;48.70;;;23.88;;
83054;SDS011;72877;52.130;5.582;2023-11-18T06:15:36;44.75;;;23.15;;
83054;SDS011;72877;52.130;5.582;2023-11-18T06:18:03;45.53;;;25.55;;
83054;SDS011;72877;52.130;5.582;2023-11-18T06:20:30;47.50;;;23.75;;
83054;SDS011;72877;52.130;5.582;2023-11-18T06:22:55;41.15;;;22.65;;
83054;SDS011;72877;52.130;5.582;2023-11-18T06:25:21;43.63;;;23.42;;
83054;SDS011;72877;52.130;5.582;2023-11-18T06:27:47;47.38;;;24.30;;
83054;SDS011;72877;52.130;5.582;2023-11-18T06:30:13;42.85;;;23.10;;
83054;SDS011;72877;52.130;5.582;2023-11-18T06:32:38;41.78;;;21.42;;
83054;SDS011;72877;52.130;5.582;2023-11-18T06:35:04;42.92;;;22.75;;
83054;SDS011;72877;52.130;5.582;2023-11-18T06:37:33;41.63;;;21.27;;
83054;SDS011;72877;52.130;5.582;2023-11-18T06:39:59;41.88;;;23.85;;
83054;SDS011;72877;52.130;5.582;2023-11-18T06:42:24;45.80;;;21.88;;
83054;SDS011;72877;52.130;5.582;2023-11-18T06:44:50;38.15;;;22.08;;
83054;SDS011;72877;52.130;5.582;2023-11-18T06:47:15;41.30;;;23.55;;
83054;SDS011;72877;52.130;5.582;2023-11-18T06:49:43;42.42;;;22.10;;
83054;SDS011;72877;52.130;5.582;2023-11-18T06:52:09;42.25;;;21.23;;
83054;SDS011;72877;52.130;5.582;2023-11-18T06:54:37;38.88;;;21.60;;
83054;SDS011;72877;52.130;5.582;2023-11-18T06:57:05;43.78;;;20.95;;
83054;SDS011;72877;52.130;5.582;2023-11-18T06:59:32;40.85;;;21.35;;
83054;SDS011;72877;52.130;5.582;2023-11-18T07:01:57;38.13;;;21.60;;
83054;SDS011;72877;52.130;5.582;2023-11-18T07:04:22;36.38;;;20.65;;
83054;SDS011;72877;52.130;5.582;2023-11-18T07:06:47;38.03;;;22.35;;
83054;SDS011;72877;52.130;5.582;2023-11-18T07:09:14;39.08;;;22.77;;
83054;SDS011;72877;52.130;5.582;2023-11-18T07:11:45;40.67;;;22.13;;
83054;SDS011;72877;52.130;5.582;2023-11-18T07:14:12;42.97;;;22.15;;
83054;SDS011;72877;52.130;5.582;2023-11-18T07:16:40;39.33;;;19.85;;
83054;SDS011;72877;52.130;5.582;2023-11-18T07:19:05;40.33;;;21.55;;
83054;SDS011;72877;52.130;5.582;2023-11-18T07:21:31;36.28;;;20.33;;
83054;SDS011;72877;52.130;5.582;2023-11-18T07:23:56;43.65;;;20.98;;
83054;SDS011;72877;52.130;5.582;2023-11-18T07:26:24;40.15;;;20.67;;
83054;SDS011;72877;52.130;5.582;2023-11-18T07:28:51;39.55;;;21.48;;
83054;SDS011;72877;52.130;5.582;2023-11-18T07:31:16;43.72;;;20.88;;
83054;SDS011;72877;52.130;5.582;2023-11-18T07:33:43;36.80;;;20.17;;
83054;SDS011;72877;52.130;5.582;2023-11-18T07:36:10;40.50;;;20.33;;
83054;SDS011;72877;52.130;5.582;2023-11-18T07:38:36;38.53;;;20.17;;
83054;SDS011;72877;52.130;5.582;2023-11-18T07:41:01;36.92;;;20.13;;
83054;SDS011;72877;52.130;5.582;2023-11-18T07:43:27;39.08;;;21.17;;
83054;SDS011;72877;52.130;5.582;2023-11-18T07:45:53;37.15;;;19.83;;
83054;SDS011;72877;52.130;5.582;2023-11-18T07:48:19;36.50;;;19.95;;
83054;SDS011;72877;52.130;5.582;2023-11-18T07:50:45;40.53;;;21.27;;
83054;SDS011;72877;52.130;5.582;2023-11-18T07:53:12;33.15;;;19.48;;
83054;SDS011;72877;52.130;5.582;2023-11-18T07:55:37;36.47;;;20.77;;
83054;SDS011;72877;52.130;5.582;2023-11-18T07:58:05;38.72;;;20.80;;
83054;SDS011;72877;52.130;5.582;2023-11-18T08:00:35;34.83;;;20.70;;
83054;SDS011;72877;52.130;5.582;2023-11-18T08:03:01;34.65;;;18.95;;
83054;SDS011;72877;52.130;5.582;2023-11-18T08:05:26;36.03;;;20.65;;
83054;SDS011;72877;52.130;5.582;2023-11-18T08:07:53;35.80;;;20.83;;
83054;SDS011;72877;52.130;5.582;2023-11-18T08:10:18;35.60;;;19.63;;
83054;SDS011;72877;52.130;5.582;2023-11-18T08:12:44;38.42;;;19.17;;
83054;SDS011;72877;52.130;5.582;2023-11-18T08:15:09;32.72;;;18.63;;
83054;SDS011;72877;52.130;5.582;2023-11-18T08:17:35;37.78;;;19.77;;
83054;SDS011;72877;52.130;5.582;2023-11-18T08:20:00;31.65;;;18.70;;
83054;SDS011;72877;52.130;5.582;2023-11-18T08:22:25;34.45;;;19.35;;
83054;SDS011;72877;52.130;5.582;2023-11-18T08:24:50;36.15;;;18.80;;
83054;SDS011;72877;52.130;5.582;2023-11-18T08:27:16;33.63;;;18.38;;
83054;SDS011;72877;52.130;5.582;2023-11-18T08:29:41;27.05;;;17.63;;
83054;SDS011;72877;52.130;5.582;2023-11-18T08:32:07;39.25;;;19.08;;
83054;SDS011;72877;52.130;5.582;2023-11-18T08:34:35;34.65;;;19.73;;
83054;SDS011;72877;52.130;5.582;2023-11-18T08:37:02;27.88;;;17.30;;
83054;SDS011;72877;52.130;5.582;2023-11-18T08:39:28;34.85;;;18.25;;
83054;SDS011;72877;52.130;5.582;2023-11-18T08:41:54;33.92;;;18.23;;
83054;SDS011;72877;52.130;5.582;2023-11-18T08:44:20;25.55;;;16.73;;
83054;SDS011;72877;52.130;5.582;2023-11-18T08:46:45;28.85;;;17.00;;
83054;SDS011;72877;52.130;5.582;2023-11-18T08:49:11;32.22;;;16.67;;
83054;SDS011;72877;52.130;5.582;2023-11-18T08:51:37;32.72;;;17.50;;
83054;SDS011;72877;52.130;5.582;2023-11-18T08:54:03;26.25;;;15.50;;
83054;SDS011;72877;52.130;5.582;2023-11-18T08:56:47;28.20;;;16.48;;
83054;SDS011;72877;52.130;5.582;2023-11-18T08:59:12;30.75;;;16.45;;
83054;SDS011;72877;52.130;5.582;2023-11-18T09:01:37;28.33;;;16.05;;
83054;SDS011;72877;52.130;5.582;2023-11-18T09:04:04;34.17;;;16.30;;
83054;SDS011;72877;52.130;5.582;2023-11-18T09:06:30;25.80;;;15.30;;
83054;SDS011;72877;52.130;5.582;2023-11-18T09:08:58;22.13;;;14.40;;
83054;SDS011;72877;52.130;5.582;2023-11-18T09:11:25;26.95;;;15.23;;
83054;SDS011;72877;52.130;5.582;2023-11-18T09:13:57;26.33;;;15.73;;
83054;SDS011;72877;52.130;5.582;2023-11-18T09:16:25;28.90;;;15.02;;
83054;SDS011;72877;52.130;5.582;2023-11-18T09:18:55;25.42;;;14.85;;
83054;SDS011;72877;52.130;5.582;2023-11-18T09:21:23;24.75;;;15.25;;
83054;SDS011;72877;52.130;5.582;2023-11-18T09:23:50;32.35;;;14.60;;
83054;SDS011;72877;52.130;5.582;2023-11-18T09:26:15;24.63;;;12.82;;
83054;SDS011;72877;52.130;5.582;2023-11-18T09:28:41;28.40;;;13.60;;
83054;SDS011;72877;52.130;5.582;2023-11-18T09:31:07;23.05;;;13.38;;
83054;SDS011;72877;52.130;5.582;2023-11-18T09:33:37;21.85;;;13.82;;
83054;SDS011;72877;52.130;5.582;2023-11-18T09:36:05;23.05;;;13.70;;
83054;SDS011;72877;52.130;5.582;2023-11-18T09:38:35;26.90;;;14.35;;
83054;SDS011;72877;52.130;5.582;2023-11-18T09:41:01;26.67;;;12.90;;
83054;SDS011;72877;52.130;5.582;2023-11-18T09:43:32;21.48;;;12.57;;
83054;SDS011;72877;52.130;5.582;2023-11-18T09:46:07;22.50;;;12.98;;
83054;SDS011;72877;52.130;5.582;2023-11-18T09:48:38;25.00;;;12.52;;
83054;SDS011;72877;52.130;5.582;2023-11-18T09:51:05;22.88;;;13.40;;
83054;SDS011;72877;52.130;5.582;2023-11-18T09:53:32;19.75;;;12.50;;
83054;SDS011;72877;52.130;5.582;2023-11-18T09:56:06;23.73;;;12.52;;
83054;SDS011;72877;52.130;5.582;2023-11-18T09:58:45;23.23;;;11.50;;
83054;SDS011;72877;52.130;5.582;2023-11-18T10:01:14;21.30;;;11.27;;
83054;SDS011;72877;52.130;5.582;2023-11-18T10:03:43;18.38;;;11.15;;
83054;SDS011;72877;52.130;5.582;2023-11-18T10:06:11;20.88;;;10.95;;
83054;SDS011;72877;52.130;5.582;2023-11-18T10:08:37;20.10;;;10.93;;
83054;SDS011;72877;52.130;5.582;2023-11-18T10:11:04;19.23;;;10.63;;
83054;SDS011;72877;52.130;5.582;2023-11-18T10:13:34;22.25;;;10.43;;
83054;SDS011;72877;52.130;5.582;2023-11-18T10:16:02;22.42;;;11.23;;
83054;SDS011;72877;52.130;5.582;2023-11-18T10:18:30;19.70;;;10.85;;
83054;SDS011;72877;52.130;5.582;2023-11-18T10:21:00;19.90;;;10.20;;
83054;SDS011;72877;52.130;5.582;2023-11-18T10:23:26;18.00;;;11.05;;
83054;SDS011;72877;52.130;5.582;2023-11-18T10:25:53;19.15;;;10.52;;
83054;SDS011;72877;52.130;5.582;2023-11-18T10:30:48;25.52;;;10.85;;
83054;SDS011;72877;52.130;5.582;2023-11-18T10:33:14;19.77;;;10.13;;
83054;SDS011;72877;52.130;5.582;2023-11-18T10:35:39;22.38;;;11.05;;
83054;SDS011;72877;52.130;5.582;2023-11-18T10:38:13;20.67;;;10.30;;
83054;SDS011;72877;52.130;5.582;2023-11-18T10:40:41;21.00;;;10.25;;
83054;SDS011;72877;52.130;5.582;2023-11-18T10:43:08;19.58;;;9.60;;
83054;SDS011;72877;52.130;5.582;2023-11-18T10:45:34;15.95;;;9.45;;
83054;SDS011;72877;52.130;5.582;2023-11-18T10:48:04;19.42;;;10.55;;
83054;SDS011;72877;52.130;5.582;2023-11-18T10:50:30;24.73;;;10.98;;
83054;SDS011;72877;52.130;5.582;2023-11-18T10:52:57;17.45;;;9.77;;
83054;SDS011;72877;52.130;5.582;2023-11-18T10:55:22;17.58;;;10.10;;
83054;SDS011;72877;52.130;5.582;2023-11-18T10:57:47;23.92;;;12.20;;
83054;SDS011;72877;52.130;5.582;2023-11-18T11:00:13;21.27;;;11.77;;
83054;SDS011;72877;52.130;5.582;2023-11-18T11:02:39;23.70;;;11.15;;
83054;SDS011;72877;52.130;5.582;2023-11-18T11:05:06;21.27;;;11.05;;
83054;SDS011;72877;52.130;5.582;2023-11-18T11:07:32;16.17;;;10.27;;
83054;SDS011;72877;52.130;5.582;2023-11-18T11:10:00;20.30;;;10.30;;
83054;SDS011;72877;52.130;5.582;2023-11-18T11:12:29;21.27;;;11.48;;
83054;SDS011;72877;52.130;5.582;2023-11-18T11:14:59;19.10;;;10.45;;
83054;SDS011;72877;52.130;5.582;2023-11-18T11:17:25;16.58;;;10.35;;
83054;SDS011;72877;52.130;5.582;2023-11-18T11:22:29;19.55;;;9.48;;
83054;SDS011;72877;52.130;5.582;2023-11-18T11:25:16;23.23;;;11.90;;
83054;SDS011;72877;52.130;5.582;2023-11-18T11:30:22;16.10;;;9.98;;
83054;SDS011;72877;52.130;5.582;2023-11-18T11:35:33;22.45;;;11.15;;
83054;SDS011;72877;52.130;5.582;2023-11-18T11:38:02;18.02;;;10.05;;
83054;SDS011;72877;52.130;5.582;2023-11-18T11:40:35;16.83;;;9.35;;
83054;SDS011;72877;52.130;5.582;2023-11-18T11:43:02;17.08;;;10.70;;
83054;SDS011;72877;52.130;5.582;2023-11-18T11:45:30;16.85;;;9.38;;
83054;SDS011;72877;52.130;5.582;2023-11-18T11:47:57;17.25;;;9.70;;
83054;SDS011;72877;52.130;5.582;2023-11-18T11:53:29;15.02;;;8.77;;
83054;SDS011;72877;52.130;5.582;2023-11-18T11:55:56;19.60;;;10.68;;
83054;SDS011;72877;52.130;5.582;2023-11-18T11:58:34;17.48;;;10.45;;
83054;SDS011;72877;52.130;5.582;2023-11-18T12:01:02;17.30;;;9.23;;
83054;SDS011;72877;52.130;5.582;2023-11-18T12:03:33;15.90;;;9.57;;
83054;SDS011;72877;52.130;5.582;2023-11-18T12:06:01;17.35;;;9.43;;
83054;SDS011;72877;52.130;5.582;2023-11-18T12:08:32;18.33;;;8.88;;
83054;SDS011;72877;52.130;5.582;2023-11-18T12:10:58;17.13;;;8.60;;
83054;SDS011;72877;52.130;5.582;2023-11-18T12:13:24;15.60;;;9.38;;
83054;SDS011;72877;52.130;5.582;2023-11-18T12:15:54;15.93;;;9.40;;
83054;SDS011;72877;52.130;5.582;2023-11-18T12:18:22;17.38;;;8.88;;
83054;SDS011;72877;52.130;5.582;2023-11-18T12:20:48;12.18;;;7.90;;
83054;SDS011;72877;52.130;5.582;2023-11-18T12:23:18;16.00;;;7.85;;
83054;SDS011;72877;52.130;5.582;2023-11-18T12:25:46;15.95;;;7.95;;
83054;SDS011;72877;52.130;5.582;2023-11-18T12:28:12;17.27;;;8.10;;
83054;SDS011;72877;52.130;5.582;2023-11-18T12:30:40;15.95;;;7.82;;
83054;SDS011;72877;52.130;5.582;2023-11-18T12:33:16;18.30;;;8.30;;
83054;SDS011;72877;52.130;5.582;2023-11-18T12:40:52;33.47;;;23.10;;
83054;SDS011;72877;52.130;5.582;2023-11-18T12:43:18;13.15;;;9.85;;
83054;SDS011;72877;52.130;5.582;2023-11-18T12:48:20;11.07;;;7.03;;
83054;SDS011;72877;52.130;5.582;2023-11-18T12:50:51;19.83;;;7.30;;
83054;SDS011;72877;52.130;5.582;2023-11-18T12:53:17;12.93;;;6.45;;
83054;SDS011;72877;52.130;5.582;2023-11-18T12:55:43;11.63;;;6.45;;
83054;SDS011;72877;52.130;5.582;2023-11-18T12:58:09;15.43;;;5.93;;
83054;SDS011;72877;52.130;5.582;2023-11-18T13:00:36;14.80;;;6.50;;
83054;SDS011;72877;52.130;5.582;2023-11-18T13:03:01;16.33;;;6.30;;
83054;SDS011;72877;52.130;5.582;2023-11-18T13:05:27;9.80;;;5.90;;
83054;SDS011;72877;52.130;5.582;2023-11-18T13:07:58;13.13;;;6.35;;
83054;SDS011;72877;52.130;5.582;2023-11-18T13:10:24;12.48;;;5.85;;
83054;SDS011;72877;52.130;5.582;2023-11-18T13:12:52;11.13;;;5.43;;
83054;SDS011;72877;52.130;5.582;2023-11-18T13:15:17;9.45;;;5.57;;
83054;SDS011;72877;52.130;5.582;2023-11-18T13:18:01;11.68;;;5.85;;
83054;SDS011;72877;52.130;5.582;2023-11-18T13:20:27;11.10;;;5.90;;
83054;SDS011;72877;52.130;5.582;2023-11-18T13:22:53;10.90;;;4.80;;
83054;SDS011;72877;52.130;5.582;2023-11-18T13:25:23;11.20;;;5.28;;
83054;SDS011;72877;52.130;5.582;2023-11-18T13:27:49;11.40;;;6.22;;
83054;SDS011;72877;52.130;5.582;2023-11-18T13:30:15;13.40;;;6.22;;
83054;SDS011;72877;52.130;5.582;2023-11-18T13:32:42;12.90;;;6.15;;
83054;SDS011;72877;52.130;5.582;2023-11-18T13:35:08;8.45;;;5.95;;
83054;SDS011;72877;52.130;5.582;2023-11-18T13:37:33;11.50;;;5.45;;
83054;SDS011;72877;52.130;5.582;2023-11-18T13:39:59;9.02;;;5.90;;
83054;SDS011;72877;52.130;5.582;2023-11-18T13:42:25;10.88;;;6.28;;
83054;SDS011;72877;52.130;5.582;2023-11-18T13:44:53;9.20;;;5.40;;
83054;SDS011;72877;52.130;5.582;2023-11-18T13:47:19;9.85;;;6.10;;
83054;SDS011;72877;52.130;5.582;2023-11-18T13:49:44;10.07;;;5.65;;
83054;SDS011;72877;52.130;5.582;2023-11-18T13:52:12;10.20;;;4.90;;
83054;SDS011;72877;52.130;5.582;2023-11-18T13:54:37;8.85;;;5.28;;
83054;SDS011;72877;52.130;5.582;2023-11-18T13:57:03;10.18;;;5.22;;
83054;SDS011;72877;52.130;5.582;2023-11-18T13:59:29;12.00;;;4.60;;
83054;SDS011;72877;52.130;5.582;2023-11-18T14:01:54;7.10;;;4.30;;
83054;SDS011;72877;52.130;5.582;2023-11-18T14:04:23;5.07;;;4.57;;
83054;SDS011;72877;52.130;5.582;2023-11-18T14:06:52;6.45;;;4.10;;
83054;SDS011;72877;52.130;5.582;2023-11-18T14:09:18;8.82;;;5.00;;
83054;SDS011;72877;52.130;5.582;2023-11-18T14:11:46;8.75;;;5.57;;
83054;SDS011;72877;52.130;5.582;2023-11-18T14:14:11;9.15;;;4.75;;
83054;SDS011;72877;52.130;5.582;2023-11-18T14:16:37;5.35;;;3.83;;
83054;SDS011;72877;52.130;5.582;2023-11-18T14:19:06;4.40;;;3.33;;
83054;SDS011;72877;52.130;5.582;2023-11-18T14:21:31;5.20;;;3.72;;
83054;SDS011;72877;52.130;5.582;2023-11-18T14:23:57;5.93;;;3.97;;
83054;SDS011;72877;52.130;5.582;2023-11-18T14:26:25;21.35;;;5.95;;
83054;SDS011;72877;52.130;5.582;2023-11-18T14:28:50;9.30;;;5.35;;
83054;SDS011;72877;52.130;5.582;2023-11-18T14:31:15;22.53;;;6.73;;
83054;SDS011;72877;52.130;5.582;2023-11-18T14:33:40;103.57;;;30.07;;
83054;SDS011;72877;52.130;5.582;2023-11-18T14:36:07;228.10;;;63.03;;
83054;SDS011;72877;52.130;5.582;2023-11-18T14:38:34;40.65;;;11.07;;
83054;SDS011;72877;52.130;5.582;2023-11-18T14:40:59;77.88;;;14.15;;
83054;SDS011;72877;52.130;5.582;2023-11-18T14:43:24;20.20;;;4.57;;
83054;SDS011;72877;52.130;5.582;2023-11-18T14:45:49;2.95;;;2.50;;
83054;SDS011;72877;52.130;5.582;2023-11-18T14:48:15;2.80;;;2.60;;